Jack C. Davis Observatory, Carson City, Nevada Weather observations

Data are for observation ending at time listed.
 Day   Time    Ave.   Ave.  Ave.  Vector   Max.   Stn.    Total    Solar   Ave.  
  of    of     Air    Rel.  Wind   Wind    Wind   Baro.  Precip.   Rad.    Soil  
Year   Day     Temp.  Hum.  Speed  Dir.    Gust   Pres.                    Temp. 
2015   (PST)    F      %     mph   deg.    mph     mb.     in.     W/m2     F   
------------------------------------------------------------------------------
 115   20:40   44.3    51    7.5   293     11.4   843.5    0.00       0    999.0
 115   20:50   44.4    48    6.9   298     10.2   843.7    0.00       0    999.0
 115   21:00   44.3    48    5.6   298      9.3   843.9    0.00       0    999.0
 115   21:10   43.5    53    2.3   102      4.7   844.1    0.00       0    999.0
 115   21:20   42.1    59    1.3   126      2.8   844.1    0.00       0    999.0
 115   21:30   41.0    61    4.3   264      6.3   844.2    0.00       0    999.0
 115   21:40   40.3    62    4.6   264      5.8   844.3    0.00       0    999.0
 115   21:50   39.7    62    5.4   264      7.4   844.3    0.00       0    999.0
 115   22:00   39.8    61    5.5   260      7.3   844.4    0.00       0    999.0
 115   22:10   40.1    62    5.5   235      7.2   844.5    0.00       0    999.0
 115   22:20   40.0    62    3.9   278      6.7   844.5    0.00       0    999.0
 115   22:30   40.9    61    3.8   263      6.0   844.5    0.00       0    999.0
 115   22:40   39.2    64    4.9   272      7.2   844.6    0.00       0    999.0
 115   22:50   38.2    67    5.6   274      8.1   844.6    0.00       0    999.0
 115   23:00   38.8    65    4.7   272      7.4   844.6    0.00       0    999.0
 115   23:10   37.9    68    5.6   262      8.1   844.6    0.00       0    999.0
 115   23:20   39.0    64    5.4   261     10.1   844.6    0.00       0    999.0
 115   23:30   40.7    59    5.5   287      9.9   844.7    0.00       0    999.0
 115   23:40   42.8    54    7.2   299     11.2   844.8    0.00       0    999.0
 115   23:50   42.6    55    5.1   313      9.5   844.8    0.00       0    999.0
 116    0:00   41.0    59    1.9    63      2.7   844.9    0.00       0    999.0
 116    0:10   40.1    61    2.7    61      4.1   845.0    0.00       0    999.0
 116    0:20   40.2    62    2.7    32      4.3   845.0    0.00       0    999.0
 116    0:30   39.1    65    2.2   278      3.9   845.0    0.00       0    999.0
 116    0:40   38.0    68    3.1   298      4.6   845.0    0.00       0    999.0
 116    0:50   37.9    68    1.7   277      4.0   845.2    0.00       0    999.0
 116    1:00   39.4    64    1.3    96      3.6   845.1    0.00       0    999.0
 116    1:10   38.5    67    1.5     5      3.6   845.2    0.00       0    999.0
 116    1:20   37.3    70    4.0   300      5.5   845.3    0.00       0    999.0
 116    1:30   37.1    71    3.7   283      5.4   845.4    0.00       0    999.0
 116    1:40   37.4    70    4.3   273      5.9   845.4    0.00       0    999.0
 116    1:50   37.0    71    5.1   275      7.1   845.5    0.00       0    999.0
 116    2:00   36.8    72    3.8   291      5.7   845.5    0.00       0    999.0
 116    2:10   36.6    72    4.0   290      5.5   845.6    0.00       0    999.0
 116    2:20   36.2    73    5.4   308     10.6   845.6    0.00       0    999.0
 116    2:30   36.1    73    5.5   326      8.9   845.7    0.00       0    999.0
 116    2:40   35.5    74    5.1   304      8.4   845.7    0.00       0    999.0
 116    2:50   35.9    72    3.2   289      4.4   845.7    0.00       0    999.0
 116    3:00   35.9    72    4.6   300      6.5   845.9    0.00       0    999.0
 116    3:10   36.2    71    4.4   314      6.1   846.0    0.00       0    999.0
 116    3:20   36.5    70    4.0   311      5.7   846.0    0.00       0    999.0
 116    3:30   37.0    70    3.4   310      4.9   846.1    0.00       0    999.0
 116    3:40   36.5    72    3.6   315      4.7   846.3    0.00       0    999.0
 116    3:50   35.6    75    4.0   276      6.1   846.3    0.00       0    999.0
 116    4:00   34.9    76    5.6   261      7.6   846.3    0.00       0    999.0
 116    4:10   34.7    77    5.2   284      7.6   846.4    0.00       0    999.0
 116    4:20   34.7    77    4.3   279      6.3   846.5    0.00       0    999.0
 116    4:30   34.8    78    2.6   312      4.4   846.6    0.00       0    999.0
 116    4:40   34.9    78    3.1   319      5.1   846.7    0.00       0    999.0
 116    4:50   35.0    78    3.3   312      4.5   846.7    0.00       0    999.0
 116    5:00   35.2    78    3.8   318      7.0   846.7    0.00       0    999.0
 116    5:10   35.4    77    3.5   326      6.0   846.8    0.00       2    999.0
 116    5:20   35.1    77    3.8   318      5.4   847.0    0.00       7    999.0
 116    5:30   35.5    76    3.3   317      5.0   847.0    0.00      14    999.0
 116    5:40   35.8    75    3.2   322      4.6   847.1    0.00      38    999.0
 116    5:50   37.5    72    2.7   319      3.9   847.2    0.00      91    999.0
 116    6:00   39.4    67    2.0   324      4.1   847.4    0.00     126    999.0
 116    6:10   42.0    62    1.2    36      2.1   847.5    0.00     156    999.0
 116    6:20   44.5    57    0.9   348      3.0   847.6    0.00     188    999.0
 116    6:30   45.0    56    1.3    68      2.6   847.7    0.00     225    999.0
 116    6:40   44.9    56    2.9   110      6.0   847.7    0.00     265    999.0
 116    6:50   42.5    61    3.5    67      6.0   848.0    0.00     182    999.0
 116    7:00   42.2    61    3.4    77      4.9   848.2    0.00     200    999.0
 116    7:10   42.8    58    3.9    70      7.3   848.2    0.00     320    999.0
 116    7:20   44.5    52    5.6    51      8.7   848.2    0.00     468    999.0
 116    7:30   44.9    51    5.1    36      8.2   848.3    0.00     430    999.0
 116    7:40   45.9    50    3.3    28      8.5   848.3    0.00     532    999.0
 116    7:50   47.1    49    3.2   329      9.3   848.3    0.00     512    999.0
 116    8:00   47.0    50    3.4   336      7.6   848.3    0.00     528    999.0
 116    8:10   46.7    50    4.9   328     10.4   848.5    0.00     559    999.0
 116    8:20   46.6    50    4.3   334      8.3   848.5    0.00     589    999.0
 116    8:30   47.0    50    5.5   322     11.1   848.5    0.00     621    999.0
 116    8:40   47.3    50    4.0   327      8.7   848.7    0.00     650    999.0
 116    8:50   47.8    50    4.3   323      8.2   848.8    0.00     676    999.0
 116    9:00   48.4    50    3.6   324      8.3   849.0    0.00     702    999.0
 116    9:10   48.9    46    2.8    34      7.1   849.1    0.00     728    999.0
 116    9:20   49.9    45    3.4    90      6.9   849.1    0.00     753    999.0
 116    9:30   48.9    46    4.4   101      7.9   849.1    0.00     777    999.0
 116    9:40   49.4    44    3.1   110      5.4   849.3    0.00     805    999.0
 116    9:50   51.0    40    3.4    68     10.3   849.3    0.00     835    999.0
 116   10:00   50.8    39    4.0    70     11.2   849.5    0.00     891    999.0
 116   10:10   50.8    39    5.4    34     11.4   849.7    0.00     861    999.0
 116   10:20   50.6    42    5.6   318     12.2   849.7    0.00     873    999.0
 116   10:30   51.5    40    5.6   350     12.0   849.7    0.00     887    999.0
 116   10:40   51.6    41    6.6   354     12.5   849.8    0.00     901    999.0
 116   10:50   51.1    39    7.5   319     12.8   849.8    0.00     926    999.0
 116   11:00   52.1    37    5.8     1     13.2   849.8    0.00     926    999.0
 116   11:10   53.1    36    4.6   336     10.1   850.0    0.00     928    999.0
 116   11:20   52.6    35    5.2   331     12.9   849.9    0.00     929    999.0
 116   11:30   53.5    34    4.9   326     11.4   849.8    0.00     938    999.0
 116   11:40   53.7    32    4.9   356     10.1   849.7    0.00     944    999.0
 116   11:50   53.7    32    5.3    14     12.2   849.7    0.00     949    999.0
 116   12:00   53.7    32    4.2    21     12.0   849.6    0.00     928    999.0
 116   12:10   55.3    31    5.7   352     12.2   849.5    0.00     929    999.0
 116   12:20   55.4    32    6.4   324     12.0   849.6    0.00     916    999.0
 116   12:30   55.5    29    7.3   341     16.8   849.7    0.00     924    999.0
 116   12:40   55.6    31    5.8   323     11.2   849.8    0.00     938    999.0
 116   12:50   55.9    30    6.4   320     12.5   849.6    0.00     899    999.0
 116   13:00   56.6    31    7.3   322     15.3   849.5    0.00     921    999.0
 116   13:10   56.3    29    6.8   332     14.2   849.6    0.00     901    999.0
 116   13:20   57.4    30    6.1   322     15.6   849.5    0.00     889    999.0
 116   13:30   57.5    30    7.1   323     14.4   849.6    0.00     857    999.0
 116   13:40   57.7    30    8.8   319     14.9   849.6    0.00     862    999.0
 116   13:50   57.4    29    9.2   323     15.5   849.6    0.00     796    999.0
 116   14:00   57.9    30    7.9   319     18.1   849.6    0.00     798    999.0
 116   14:10   58.8    28    5.8    24     16.9   849.6    0.00     860    999.0
 116   14:20   59.0    27    4.7     1     11.5   849.5    0.00     710    999.0
 116   14:30   59.1    27    5.2     9     12.2   849.7    0.00     658    999.0
 116   14:40   58.2    28    6.8    32     14.0   849.5    0.00     710    999.0
 116   14:50   58.6    28    5.2   336     13.9   849.5    0.00     691    999.0
 116   15:00   58.5    27    7.2    30     19.3   849.5    0.00     680    999.0
 116   15:10   59.0    27    6.2   360     13.2   849.5    0.00     648    999.0
 116   15:20   59.0    27    4.6   357     12.2   849.5    0.00     636    999.0
 116   15:30   59.5    28    6.4   324     13.9   849.4    0.00     612    999.0
 116   15:40   60.7    27    4.1     9      9.7   849.5    0.00     560    999.0
 116   15:50   60.2    27    5.2   335     12.4   849.5    0.00     551    999.0
 116   16:00   59.7    27    4.5    17     10.9   849.5    0.00     491    999.0
 116   16:10   60.0    27    5.2   333     14.4   849.5    0.00     427    999.0
 116   16:20   59.1    28    6.8   320     12.1   849.5    0.00     398    999.0
 116   16:30   59.5    27    4.9     2     12.1   849.6    0.00     400    999.0
 116   16:40   59.4    27    6.1     7     14.3   849.6    0.00     389    999.0
 116   16:50   59.7    27    4.5     0      9.8   849.7    0.00     342    999.0
 116   17:00   59.2    27    4.7    13      9.5   849.7    0.00     288    999.0
 116   17:10   58.9    28    5.2   344     13.2   849.8    0.00     276    999.0
 116   17:20   58.9    28    4.5   337      9.1   849.8    0.00     243    999.0
 116   17:30   58.6    29    4.1   326     11.2   849.8    0.00     200    999.0
 116   17:40   58.6    28    4.4     5     10.6   849.9    0.00     164    999.0
 116   17:50   57.0    30    4.2   359      9.9   849.9    0.00      63    999.0
 116   18:00   55.6    31    3.8   337      8.8   849.9    0.00      28    999.0
 116   18:10   55.2    31    3.4   349      9.1   849.9    0.00      29    999.0
 116   18:20   54.9    32    3.4   350      8.1   850.0    0.00      26    999.0
 116   18:30   54.3    34    3.8   335      6.8   850.2    0.00      18    999.0
 116   18:40   51.8    42    4.6   322      5.7   850.4    0.00      10    999.0
 116   18:50   50.7    43    4.0   323      5.6   850.4    0.00       6    999.0
 116   19:00   50.1    44    4.1   314      5.2   850.5    0.00       2    999.0
 116   19:10   49.7    44    5.1   303      6.9   850.6    0.00       0    999.0
 116   19:20   50.3    41    3.3   300      5.2   850.7    0.00       0    999.0
 116   19:30   49.2    46    5.2   269      7.8   850.9    0.00       0    999.0
 116   19:40   47.9    49    6.3   264      8.2   850.9    0.00       0    999.0
 116   19:50   48.2    46    6.7   259      8.8   850.9    0.00       0    999.0
 116   20:00   47.7    49    7.0   263      8.6   851.1    0.00       0    999.0
 116   20:10   47.4    50    6.4   265      8.2   851.2    0.00       0    999.0
 116   20:20   47.3    48    6.8   267      9.3   851.3    0.00       0    999.0
 116   20:30   47.4    48    5.9   270      7.6   851.3    0.00       0    999.0

Return to Yerington, Nevada graphs page.


Western Regional Climate Center,wrcc@dri.edu